sensor_id;sensor_type;location;lat;lon;timestamp;pressure;altitude;pressure_sealevel;temperature;humidity
70009;BME280;59542;37.950;-122.338;2022-12-29T00:01:35;101370.63;;;13.61;62.35
70009;BME280;59542;37.950;-122.338;2022-12-29T00:04:02;101364.44;;;13.60;61.72
70009;BME280;59542;37.950;-122.338;2022-12-29T00:06:28;101365.63;;;13.64;61.98
70009;BME280;59542;37.950;-122.338;2022-12-29T00:08:55;101373.94;;;13.56;62.70
70009;BME280;59542;37.950;-122.338;2022-12-29T00:11:23;101369.88;;;13.40;63.69
70009;BME280;59542;37.950;-122.338;2022-12-29T00:13:51;101358.22;;;13.53;61.02
70009;BME280;59542;37.950;-122.338;2022-12-29T00:16:36;101367.19;;;13.40;61.63
70009;BME280;59542;37.950;-122.338;2022-12-29T00:19:04;101372.78;;;13.39;62.67
70009;BME280;59542;37.950;-122.338;2022-12-29T00:21:30;101357.28;;;13.21;61.84
70009;BME280;59542;37.950;-122.338;2022-12-29T00:24:18;101359.41;;;12.66;62.90
70009;BME280;59542;37.950;-122.338;2022-12-29T00:29:48;101351.53;;;12.71;63.44
70009;BME280;59542;37.950;-122.338;2022-12-29T00:32:33;101350.75;;;12.77;63.68
70009;BME280;59542;37.950;-122.338;2022-12-29T00:35:25;101355.69;;;12.80;64.92
70009;BME280;59542;37.950;-122.338;2022-12-29T00:37:52;101346.59;;;12.68;65.64
70009;BME280;59542;37.950;-122.338;2022-12-29T00:40:38;101347.84;;;12.72;66.87
70009;BME280;59542;37.950;-122.338;2022-12-29T00:43:22;101355.47;;;12.75;67.57
70009;BME280;59542;37.950;-122.338;2022-12-29T00:46:07;101371.19;;;12.78;68.14
70009;BME280;59542;37.950;-122.338;2022-12-29T00:48:33;101386.28;;;12.79;67.50
70009;BME280;59542;37.950;-122.338;2022-12-29T00:51:18;101387.91;;;12.74;66.16
70009;BME280;59542;37.950;-122.338;2022-12-29T00:53:44;101380.88;;;12.53;65.63
70009;BME280;59542;37.950;-122.338;2022-12-29T00:56:10;101386.03;;;12.41;65.90
70009;BME280;59542;37.950;-122.338;2022-12-29T00:58:36;101390.81;;;12.52;65.01
70009;BME280;59542;37.950;-122.338;2022-12-29T01:01:06;101379.44;;;12.50;64.44
70009;BME280;59542;37.950;-122.338;2022-12-29T01:03:35;101362.72;;;12.55;64.37
70009;BME280;59542;37.950;-122.338;2022-12-29T01:06:03;101354.66;;;12.41;64.44
70009;BME280;59542;37.950;-122.338;2022-12-29T01:08:30;101349.91;;;12.57;66.13
70009;BME280;59542;37.950;-122.338;2022-12-29T01:11:05;101339.38;;;12.62;66.95
70009;BME280;59542;37.950;-122.338;2022-12-29T01:13:32;101317.25;;;12.53;67.73
70009;BME280;59542;37.950;-122.338;2022-12-29T01:15:59;101323.66;;;12.32;68.26
70009;BME280;59542;37.950;-122.338;2022-12-29T01:18:25;101323.88;;;12.37;67.96
70009;BME280;59542;37.950;-122.338;2022-12-29T01:21:02;101328.22;;;12.52;67.42
70009;BME280;59542;37.950;-122.338;2022-12-29T01:23:30;101328.63;;;12.42;67.23
70009;BME280;59542;37.950;-122.338;2022-12-29T01:25:57;101318.09;;;12.34;67.17
70009;BME280;59542;37.950;-122.338;2022-12-29T01:28:33;101323.69;;;12.46;66.73
70009;BME280;59542;37.950;-122.338;2022-12-29T01:31:00;101329.03;;;12.32;66.92
70009;BME280;59542;37.950;-122.338;2022-12-29T01:33:27;101331.09;;;12.24;67.34
70009;BME280;59542;37.950;-122.338;2022-12-29T01:35:53;101335.22;;;12.20;67.13
70009;BME280;59542;37.950;-122.338;2022-12-29T01:38:20;101323.03;;;12.17;67.33
70009;BME280;59542;37.950;-122.338;2022-12-29T01:40:46;101324.69;;;12.18;67.18
70009;BME280;59542;37.950;-122.338;2022-12-29T01:43:13;101322.00;;;12.05;66.88
70009;BME280;59542;37.950;-122.338;2022-12-29T01:46:52;101299.72;;;12.11;67.19
70009;BME280;59542;37.950;-122.338;2022-12-29T01:51:32;101292.94;;;11.54;69.43
70009;BME280;59542;37.950;-122.338;2022-12-29T01:54:01;101286.97;;;11.52;70.29
70009;BME280;59542;37.950;-122.338;2022-12-29T01:56:30;101271.09;;;11.57;70.39
70009;BME280;59542;37.950;-122.338;2022-12-29T01:59:04;101245.94;;;11.64;70.32
70009;BME280;59542;37.950;-122.338;2022-12-29T02:01:31;101240.13;;;11.48;70.82
70009;BME280;59542;37.950;-122.338;2022-12-29T02:03:58;101231.72;;;11.64;70.47
70009;BME280;59542;37.950;-122.338;2022-12-29T02:06:49;101246.22;;;11.83;69.77
70009;BME280;59542;37.950;-122.338;2022-12-29T02:09:18;101239.41;;;11.87;69.11
70009;BME280;59542;37.950;-122.338;2022-12-29T02:11:44;101229.06;;;11.77;69.14
70009;BME280;59542;37.950;-122.338;2022-12-29T02:14:13;101226.78;;;11.74;69.51
70009;BME280;59542;37.950;-122.338;2022-12-29T02:17:22;101229.84;;;11.71;69.55
70009;BME280;59542;37.950;-122.338;2022-12-29T02:22:27;101253.03;;;11.85;68.91
70009;BME280;59542;37.950;-122.338;2022-12-29T02:36:37;101248.84;;;11.76;68.17
70009;BME280;59542;37.950;-122.338;2022-12-29T02:39:24;101251.16;;;11.18;70.75
70009;BME280;59542;37.950;-122.338;2022-12-29T02:44:45;101243.63;;;10.59;73.92
70009;BME280;59542;37.950;-122.338;2022-12-29T02:47:30;101233.75;;;10.10;76.07
70009;BME280;59542;37.950;-122.338;2022-12-29T02:52:37;101235.34;;;10.54;74.37
70009;BME280;59542;37.950;-122.338;2022-12-29T02:55:05;101232.38;;;10.70;73.90
70009;BME280;59542;37.950;-122.338;2022-12-29T02:57:34;101231.84;;;10.53;73.93
70009;BME280;59542;37.950;-122.338;2022-12-29T03:00:10;101225.78;;;10.38;73.80
70009;BME280;59542;37.950;-122.338;2022-12-29T03:08:04;101225.41;;;10.41;73.86
70009;BME280;59542;37.950;-122.338;2022-12-29T03:10:59;101233.56;;;10.61;73.11
70009;BME280;59542;37.950;-122.338;2022-12-29T03:13:40;101242.34;;;10.83;71.95
70009;BME280;59542;37.950;-122.338;2022-12-29T03:19:26;101233.25;;;10.77;71.65
70009;BME280;59542;37.950;-122.338;2022-12-29T03:24:47;101249.81;;;10.94;71.47
70009;BME280;59542;37.950;-122.338;2022-12-29T03:27:19;101261.47;;;10.80;72.12
70009;BME280;59542;37.950;-122.338;2022-12-29T03:29:55;101272.09;;;11.01;70.89
70009;BME280;59542;37.950;-122.338;2022-12-29T03:32:27;101279.00;;;10.82;71.53
70009;BME280;59542;37.950;-122.338;2022-12-29T03:34:54;101286.34;;;11.08;70.41
70009;BME280;59542;37.950;-122.338;2022-12-29T03:37:26;101300.44;;;11.24;68.82
70009;BME280;59542;37.950;-122.338;2022-12-29T03:39:55;101298.31;;;11.06;69.79
70009;BME280;59542;37.950;-122.338;2022-12-29T03:42:25;101269.28;;;10.47;71.36
70009;BME280;59542;37.950;-122.338;2022-12-29T03:44:56;101265.59;;;10.82;71.34
70009;BME280;59542;37.950;-122.338;2022-12-29T03:47:23;101277.28;;;10.68;70.44
70009;BME280;59542;37.950;-122.338;2022-12-29T03:49:50;101265.69;;;10.61;71.22
70009;BME280;59542;37.950;-122.338;2022-12-29T03:52:17;101275.63;;;10.67;71.22
70009;BME280;59542;37.950;-122.338;2022-12-29T03:54:44;101287.31;;;10.94;69.85
70009;BME280;59542;37.950;-122.338;2022-12-29T03:57:11;101285.22;;;10.90;69.49
70009;BME280;59542;37.950;-122.338;2022-12-29T03:59:37;101295.59;;;10.99;68.78
70009;BME280;59542;37.950;-122.338;2022-12-29T04:02:04;101333.44;;;10.90;69.13
70009;BME280;59542;37.950;-122.338;2022-12-29T04:04:30;101359.13;;;11.12;67.59
70009;BME280;59542;37.950;-122.338;2022-12-29T04:06:56;101366.19;;;10.92;68.36
70009;BME280;59542;37.950;-122.338;2022-12-29T04:09:22;101379.81;;;11.25;66.67
70009;BME280;59542;37.950;-122.338;2022-12-29T04:11:49;101388.69;;;10.97;67.45
70009;BME280;59542;37.950;-122.338;2022-12-29T04:14:15;101376.41;;;10.81;67.79
70009;BME280;59542;37.950;-122.338;2022-12-29T04:16:41;101360.34;;;10.53;69.63
70009;BME280;59542;37.950;-122.338;2022-12-29T04:19:08;101350.59;;;10.67;69.25
70009;BME280;59542;37.950;-122.338;2022-12-29T04:21:34;101346.09;;;10.74;68.94
70009;BME280;59542;37.950;-122.338;2022-12-29T04:24:00;101350.41;;;10.75;69.15
70009;BME280;59542;37.950;-122.338;2022-12-29T04:26:27;101347.69;;;10.97;68.60
70009;BME280;59542;37.950;-122.338;2022-12-29T04:28:53;101317.38;;;10.90;68.94
70009;BME280;59542;37.950;-122.338;2022-12-29T04:31:19;101303.09;;;10.82;69.05
70009;BME280;59542;37.950;-122.338;2022-12-29T04:33:45;101286.03;;;10.83;69.14
70009;BME280;59542;37.950;-122.338;2022-12-29T04:36:12;101264.28;;;11.00;68.81
70009;BME280;59542;37.950;-122.338;2022-12-29T04:38:38;101278.06;;;10.97;68.53
70009;BME280;59542;37.950;-122.338;2022-12-29T04:41:04;101272.09;;;10.95;68.87
70009;BME280;59542;37.950;-122.338;2022-12-29T04:43:31;101260.53;;;10.94;69.14
70009;BME280;59542;37.950;-122.338;2022-12-29T04:45:57;101269.22;;;10.68;69.50
70009;BME280;59542;37.950;-122.338;2022-12-29T04:48:23;101273.22;;;10.79;69.28
70009;BME280;59542;37.950;-122.338;2022-12-29T04:50:50;101281.03;;;10.80;69.21
70009;BME280;59542;37.950;-122.338;2022-12-29T04:53:17;101288.25;;;10.80;69.16
70009;BME280;59542;37.950;-122.338;2022-12-29T04:55:44;101295.59;;;10.99;68.15
70009;BME280;59542;37.950;-122.338;2022-12-29T04:58:10;101274.03;;;10.79;69.04
70009;BME280;59542;37.950;-122.338;2022-12-29T05:00:36;101257.38;;;10.49;70.69
70009;BME280;59542;37.950;-122.338;2022-12-29T05:03:03;101277.88;;;10.70;69.88
70009;BME280;59542;37.950;-122.338;2022-12-29T05:05:29;101304.53;;;10.78;69.56
70009;BME280;59542;37.950;-122.338;2022-12-29T05:07:55;101292.78;;;10.79;69.52
70009;BME280;59542;37.950;-122.338;2022-12-29T05:10:21;101284.16;;;10.84;69.25
70009;BME280;59542;37.950;-122.338;2022-12-29T05:12:48;101276.78;;;10.93;69.15
70009;BME280;59542;37.950;-122.338;2022-12-29T05:15:14;101281.59;;;11.04;68.54
70009;BME280;59542;37.950;-122.338;2022-12-29T05:17:40;101286.25;;;10.89;68.88
70009;BME280;59542;37.950;-122.338;2022-12-29T05:20:07;101271.03;;;10.89;68.97
70009;BME280;59542;37.950;-122.338;2022-12-29T05:22:34;101266.75;;;10.67;69.35
70009;BME280;59542;37.950;-122.338;2022-12-29T05:25:00;101278.47;;;10.38;70.16
70009;BME280;59542;37.950;-122.338;2022-12-29T05:27:26;101280.88;;;10.54;69.66
70009;BME280;59542;37.950;-122.338;2022-12-29T05:29:52;101291.84;;;10.66;69.42
70009;BME280;59542;37.950;-122.338;2022-12-29T05:32:19;101290.91;;;10.73;69.25
70009;BME280;59542;37.950;-122.338;2022-12-29T05:34:45;101263.47;;;10.71;69.08
70009;BME280;59542;37.950;-122.338;2022-12-29T05:37:11;101243.09;;;10.70;69.10
70009;BME280;59542;37.950;-122.338;2022-12-29T05:39:38;101252.16;;;10.69;69.46
70009;BME280;59542;37.950;-122.338;2022-12-29T05:42:04;101234.81;;;10.65;69.77
70009;BME280;59542;37.950;-122.338;2022-12-29T05:44:30;101233.91;;;10.51;70.12
70009;BME280;59542;37.950;-122.338;2022-12-29T05:46:56;101212.06;;;10.48;70.29
70009;BME280;59542;37.950;-122.338;2022-12-29T05:49:23;101189.28;;;10.58;70.22
70009;BME280;59542;37.950;-122.338;2022-12-29T05:51:49;101173.88;;;10.67;69.90
70009;BME280;59542;37.950;-122.338;2022-12-29T05:54:15;101175.53;;;10.68;70.27
70009;BME280;59542;37.950;-122.338;2022-12-29T05:56:41;101197.41;;;10.78;69.82
70009;BME280;59542;37.950;-122.338;2022-12-29T05:59:08;101200.25;;;10.70;70.22
70009;BME280;59542;37.950;-122.338;2022-12-29T06:01:34;101192.41;;;10.69;70.37
70009;BME280;59542;37.950;-122.338;2022-12-29T06:04:00;101195.09;;;10.69;70.32
70009;BME280;59542;37.950;-122.338;2022-12-29T06:06:27;101198.03;;;10.80;70.29
70009;BME280;59542;37.950;-122.338;2022-12-29T06:08:53;101205.47;;;10.78;70.43
70009;BME280;59542;37.950;-122.338;2022-12-29T06:11:19;101216.00;;;10.87;70.30
70009;BME280;59542;37.950;-122.338;2022-12-29T06:13:45;101220.50;;;10.79;70.13
70009;BME280;59542;37.950;-122.338;2022-12-29T06:16:11;101206.88;;;10.74;70.18
70009;BME280;59542;37.950;-122.338;2022-12-29T06:18:38;101192.06;;;10.78;70.42
70009;BME280;59542;37.950;-122.338;2022-12-29T06:21:05;101190.22;;;10.79;70.42
70009;BME280;59542;37.950;-122.338;2022-12-29T06:23:31;101173.91;;;10.74;71.00
70009;BME280;59542;37.950;-122.338;2022-12-29T06:25:57;101161.97;;;10.76;70.68
70009;BME280;59542;37.950;-122.338;2022-12-29T06:28:24;101155.78;;;10.76;70.87
70009;BME280;59542;37.950;-122.338;2022-12-29T06:30:50;101161.97;;;10.76;70.89
70009;BME280;59542;37.950;-122.338;2022-12-29T06:33:16;101167.09;;;10.71;71.12
70009;BME280;59542;37.950;-122.338;2022-12-29T06:35:43;101161.91;;;10.63;71.37
70009;BME280;59542;37.950;-122.338;2022-12-29T06:38:09;101179.25;;;10.67;71.22
70009;BME280;59542;37.950;-122.338;2022-12-29T06:40:35;101182.88;;;10.60;71.53
70009;BME280;59542;37.950;-122.338;2022-12-29T06:43:02;101165.66;;;10.75;71.14
70009;BME280;59542;37.950;-122.338;2022-12-29T06:45:28;101173.94;;;10.80;70.97
70009;BME280;59542;37.950;-122.338;2022-12-29T06:47:54;101166.13;;;10.86;71.42
70009;BME280;59542;37.950;-122.338;2022-12-29T06:50:20;101179.25;;;10.67;72.21
70009;BME280;59542;37.950;-122.338;2022-12-29T06:52:47;101163.19;;;10.67;72.34
70009;BME280;59542;37.950;-122.338;2022-12-29T06:55:13;101166.25;;;10.71;72.12
70009;BME280;59542;37.950;-122.338;2022-12-29T06:57:40;101167.09;;;10.71;72.25
70009;BME280;59542;37.950;-122.338;2022-12-29T07:00:06;101173.47;;;10.70;72.39
70009;BME280;59542;37.950;-122.338;2022-12-29T07:02:33;101167.22;;;10.98;72.30
70009;BME280;59542;37.950;-122.338;2022-12-29T07:04:59;101163.22;;;10.80;72.52
70009;BME280;59542;37.950;-122.338;2022-12-29T07:07:25;101158.06;;;10.72;73.00
70009;BME280;59542;37.950;-122.338;2022-12-29T07:09:51;101140.53;;;10.76;73.07
70009;BME280;59542;37.950;-122.338;2022-12-29T07:12:18;101153.53;;;10.73;73.48
70009;BME280;59542;37.950;-122.338;2022-12-29T07:14:44;101121.63;;;10.78;73.56
70009;BME280;59542;37.950;-122.338;2022-12-29T07:17:10;101113.38;;;10.73;73.72
70009;BME280;59542;37.950;-122.338;2022-12-29T07:19:36;101119.94;;;10.70;73.78
70009;BME280;59542;37.950;-122.338;2022-12-29T07:22:03;101133.78;;;10.80;73.68
70009;BME280;59542;37.950;-122.338;2022-12-29T07:24:29;101145.72;;;10.78;73.72
70009;BME280;59542;37.950;-122.338;2022-12-29T07:26:55;101163.25;;;10.87;73.22
70009;BME280;59542;37.950;-122.338;2022-12-29T07:29:22;101176.63;;;10.80;73.52
70009;BME280;59542;37.950;-122.338;2022-12-29T07:31:48;101172.91;;;10.81;73.09
70009;BME280;59542;37.950;-122.338;2022-12-29T07:34:14;101182.78;;;10.74;73.97
70009;BME280;59542;37.950;-122.338;2022-12-29T07:36:40;101185.41;;;10.68;74.21
70009;BME280;59542;37.950;-122.338;2022-12-29T07:39:07;101185.72;;;10.45;76.24
70009;BME280;59542;37.950;-122.338;2022-12-29T07:41:33;101177.47;;;10.46;76.17
70009;BME280;59542;37.950;-122.338;2022-12-29T07:44:00;101179.31;;;10.87;74.61
70009;BME280;59542;37.950;-122.338;2022-12-29T07:46:26;101191.00;;;10.73;74.75
70009;BME280;59542;37.950;-122.338;2022-12-29T07:48:53;101200.81;;;10.59;75.66
70009;BME280;59542;37.950;-122.338;2022-12-29T07:51:19;101231.16;;;10.73;75.13
70009;BME280;59542;37.950;-122.338;2022-12-29T07:53:45;101242.59;;;10.60;75.40
70009;BME280;59542;37.950;-122.338;2022-12-29T07:56:11;101225.31;;;10.56;75.65
70009;BME280;59542;37.950;-122.338;2022-12-29T07:58:37;101201.38;;;10.54;76.14
70009;BME280;59542;37.950;-122.338;2022-12-29T08:01:04;101222.41;;;10.57;75.97
70009;BME280;59542;37.950;-122.338;2022-12-29T08:03:31;101207.59;;;10.55;76.20
70009;BME280;59542;37.950;-122.338;2022-12-29T08:05:57;101215.66;;;10.62;76.11
70009;BME280;59542;37.950;-122.338;2022-12-29T08:08:23;101221.53;;;10.44;76.98
70009;BME280;59542;37.950;-122.338;2022-12-29T08:10:49;101187.41;;;10.24;78.37
70009;BME280;59542;37.950;-122.338;2022-12-29T08:13:16;101191.31;;;10.00;79.27
70009;BME280;59542;37.950;-122.338;2022-12-29T08:15:42;101165.94;;;9.90;79.90
70009;BME280;59542;37.950;-122.338;2022-12-29T08:18:08;101166.84;;;10.03;79.86
70009;BME280;59542;37.950;-122.338;2022-12-29T08:20:34;101169.00;;;10.15;78.72
70009;BME280;59542;37.950;-122.338;2022-12-29T08:23:00;101172.56;;;10.50;77.62
70009;BME280;59542;37.950;-122.338;2022-12-29T08:25:27;101163.03;;;10.41;77.48
70009;BME280;59542;37.950;-122.338;2022-12-29T08:27:53;101152.47;;;10.32;78.09
70009;BME280;59542;37.950;-122.338;2022-12-29T08:30:19;101119.75;;;10.30;78.13
70009;BME280;59542;37.950;-122.338;2022-12-29T08:32:46;101122.84;;;10.27;78.41
70009;BME280;59542;37.950;-122.338;2022-12-29T08:35:12;101120.25;;;10.47;78.20
70009;BME280;59542;37.950;-122.338;2022-12-29T08:37:38;101127.41;;;10.40;78.33
70009;BME280;59542;37.950;-122.338;2022-12-29T08:40:05;101112.94;;;10.28;78.93
70009;BME280;59542;37.950;-122.338;2022-12-29T08:42:32;101106.97;;;10.32;78.90
70009;BME280;59542;37.950;-122.338;2022-12-29T08:44:59;101104.75;;;10.36;78.71
70009;BME280;59542;37.950;-122.338;2022-12-29T08:47:25;101104.19;;;10.13;79.98
70009;BME280;59542;37.950;-122.338;2022-12-29T08:49:52;101088.56;;;10.16;79.84
70009;BME280;59542;37.950;-122.338;2022-12-29T08:52:19;101095.44;;;10.25;79.75
70009;BME280;59542;37.950;-122.338;2022-12-29T08:54:45;101104.19;;;10.47;78.47
70009;BME280;59542;37.950;-122.338;2022-12-29T08:57:12;101097.34;;;10.38;78.58
70009;BME280;59542;37.950;-122.338;2022-12-29T08:59:38;101097.63;;;10.50;78.48
70009;BME280;59542;37.950;-122.338;2022-12-29T09:02:04;101099.41;;;10.36;78.77
70009;BME280;59542;37.950;-122.338;2022-12-29T09:04:30;101105.81;;;10.42;78.57
70009;BME280;59542;37.950;-122.338;2022-12-29T09:06:57;101086.50;;;10.53;78.00
70009;BME280;59542;37.950;-122.338;2022-12-29T09:09:23;101084.41;;;10.42;78.51
70009;BME280;59542;37.950;-122.338;2022-12-29T09:11:49;101072.28;;;10.46;78.14
70009;BME280;59542;37.950;-122.338;2022-12-29T09:14:15;101065.44;;;10.37;77.59
70009;BME280;59542;37.950;-122.338;2022-12-29T09:16:42;101078.78;;;10.30;78.39
70009;BME280;59542;37.950;-122.338;2022-12-29T09:19:26;101099.47;;;10.21;77.80
70009;BME280;59542;37.950;-122.338;2022-12-29T09:21:53;101102.03;;;10.29;77.32
70009;BME280;59542;37.950;-122.338;2022-12-29T09:24:19;101099.88;;;10.46;77.02
70009;BME280;59542;37.950;-122.338;2022-12-29T09:26:45;101121.00;;;10.35;77.43
70009;BME280;59542;37.950;-122.338;2022-12-29T09:29:11;101102.66;;;10.31;77.83
70009;BME280;59542;37.950;-122.338;2022-12-29T09:31:37;101095.22;;;10.27;78.11
70009;BME280;59542;37.950;-122.338;2022-12-29T09:34:04;101108.34;;;10.50;77.48
70009;BME280;59542;37.950;-122.338;2022-12-29T09:36:30;101103.09;;;10.35;78.12
70009;BME280;59542;37.950;-122.338;2022-12-29T09:38:56;101099.56;;;10.28;78.57
70009;BME280;59542;37.950;-122.338;2022-12-29T09:41:28;101103.22;;;10.55;78.27
70009;BME280;59542;37.950;-122.338;2022-12-29T09:44:03;101114.28;;;10.17;78.90
70009;BME280;59542;37.950;-122.338;2022-12-29T09:46:39;101119.38;;;10.05;79.22
70009;BME280;59542;37.950;-122.338;2022-12-29T09:52:00;101115.63;;;10.00;79.06
70009;BME280;59542;37.950;-122.338;2022-12-29T09:57:01;101108.84;;;9.76;80.36
70009;BME280;59542;37.950;-122.338;2022-12-29T09:59:40;101083.56;;;9.72;81.32
70009;BME280;59542;37.950;-122.338;2022-12-29T10:02:42;101069.94;;;9.67;82.27
70009;BME280;59542;37.950;-122.338;2022-12-29T10:05:44;101044.97;;;9.88;82.11
70009;BME280;59542;37.950;-122.338;2022-12-29T10:24:19;101130.78;;;9.93;83.38
70009;BME280;59542;37.950;-122.338;2022-12-29T10:26:49;101130.44;;;9.74;84.07
70009;BME280;59542;37.950;-122.338;2022-12-29T10:29:23;101141.22;;;9.88;84.05
70009;BME280;59542;37.950;-122.338;2022-12-29T10:32:01;101140.69;;;9.99;83.35
70009;BME280;59542;37.950;-122.338;2022-12-29T10:34:37;101139.09;;;10.04;83.48
70009;BME280;59542;37.950;-122.338;2022-12-29T10:39:48;101142.75;;;10.25;82.91
70009;BME280;59542;37.950;-122.338;2022-12-29T10:44:50;101165.81;;;10.26;82.89
70009;BME280;59542;37.950;-122.338;2022-12-29T10:47:21;101154.06;;;10.27;82.82
70009;BME280;59542;37.950;-122.338;2022-12-29T10:49:49;101131.84;;;10.26;83.17
70009;BME280;59542;37.950;-122.338;2022-12-29T10:52:17;101133.81;;;10.39;82.59
70009;BME280;59542;37.950;-122.338;2022-12-29T10:57:44;101149.63;;;10.34;82.94
70009;BME280;59542;37.950;-122.338;2022-12-29T11:05:40;101155.69;;;10.49;82.83
70009;BME280;59542;37.950;-122.338;2022-12-29T11:08:15;101157.91;;;10.46;82.67
70009;BME280;59542;37.950;-122.338;2022-12-29T11:10:45;101166.28;;;10.36;83.06
70009;BME280;59542;37.950;-122.338;2022-12-29T11:13:17;101152.94;;;10.43;83.11
70009;BME280;59542;37.950;-122.338;2022-12-29T11:15:46;101161.75;;;10.37;83.42
70009;BME280;59542;37.950;-122.338;2022-12-29T11:21:00;101151.94;;;10.44;83.40
70009;BME280;59542;37.950;-122.338;2022-12-29T11:23:38;101141.81;;;10.39;83.31
70009;BME280;59542;37.950;-122.338;2022-12-29T11:28:38;101143.91;;;10.44;83.51
70009;BME280;59542;37.950;-122.338;2022-12-29T11:31:05;101141.25;;;10.44;83.51
70009;BME280;59542;37.950;-122.338;2022-12-29T11:33:34;101145.50;;;10.38;83.56
70009;BME280;59542;37.950;-122.338;2022-12-29T11:36:27;101153.16;;;10.41;83.61
70009;BME280;59542;37.950;-122.338;2022-12-29T11:38:55;101168.69;;;10.59;82.77
70009;BME280;59542;37.950;-122.338;2022-12-29T11:41:27;101154.13;;;10.68;82.33
70009;BME280;59542;37.950;-122.338;2022-12-29T11:43:58;101152.78;;;10.44;83.04
70009;BME280;59542;37.950;-122.338;2022-12-29T11:46:29;101160.59;;;10.46;82.91
70009;BME280;59542;37.950;-122.338;2022-12-29T11:48:58;101164.28;;;10.45;82.82
70009;BME280;59542;37.950;-122.338;2022-12-29T11:51:37;101164.88;;;10.40;83.05
70009;BME280;59542;37.950;-122.338;2022-12-29T11:54:05;101143.25;;;10.35;83.57
70009;BME280;59542;37.950;-122.338;2022-12-29T11:56:35;101137.59;;;10.58;83.05
70009;BME280;59542;37.950;-122.338;2022-12-29T12:01:57;101127.25;;;10.48;83.12
70009;BME280;59542;37.950;-122.338;2022-12-29T12:04:30;101121.88;;;10.42;83.31
70009;BME280;59542;37.950;-122.338;2022-12-29T12:07:12;101112.81;;;10.43;83.32
70009;BME280;59542;37.950;-122.338;2022-12-29T12:10:01;101082.13;;;10.39;83.73
70009;BME280;59542;37.950;-122.338;2022-12-29T12:12:48;101065.66;;;10.42;83.56
70009;BME280;59542;37.950;-122.338;2022-12-29T12:15:41;101075.09;;;10.31;84.52
70009;BME280;59542;37.950;-122.338;2022-12-29T12:18:11;101089.47;;;10.23;84.39
70009;BME280;59542;37.950;-122.338;2022-12-29T12:20:54;101099.03;;;10.11;84.95
70009;BME280;59542;37.950;-122.338;2022-12-29T12:23:39;101110.84;;;10.23;84.54
70009;BME280;59542;37.950;-122.338;2022-12-29T12:26:45;101103.56;;;10.11;85.13
70009;BME280;59542;37.950;-122.338;2022-12-29T12:29:13;101119.50;;;9.97;85.33
70009;BME280;59542;37.950;-122.338;2022-12-29T12:31:56;101119.50;;;9.97;86.29
70009;BME280;59542;37.950;-122.338;2022-12-29T12:34:37;101105.47;;;9.89;85.98
70009;BME280;59542;37.950;-122.338;2022-12-29T12:37:31;101101.28;;;9.79;86.56
70009;BME280;59542;37.950;-122.338;2022-12-29T12:40:07;101083.97;;;9.75;86.60
70009;BME280;59542;37.950;-122.338;2022-12-29T12:42:43;101063.44;;;9.83;86.65
70009;BME280;59542;37.950;-122.338;2022-12-29T12:58:55;100997.06;;;9.23;86.44
70009;BME280;59542;37.950;-122.338;2022-12-29T13:15:15;100995.56;;;9.49;84.97
70009;BME280;59542;37.950;-122.338;2022-12-29T13:23:40;100980.09;;;9.38;85.56
70009;BME280;59542;37.950;-122.338;2022-12-29T13:26:47;100986.19;;;9.60;85.23
70009;BME280;59542;37.950;-122.338;2022-12-29T13:29:21;100988.63;;;9.55;85.15
70009;BME280;59542;37.950;-122.338;2022-12-29T13:34:26;101007.78;;;9.58;84.93
70009;BME280;59542;37.950;-122.338;2022-12-29T13:37:01;100998.66;;;9.46;85.79
70009;BME280;59542;37.950;-122.338;2022-12-29T13:39:57;100977.69;;;9.21;87.36
70009;BME280;59542;37.950;-122.338;2022-12-29T13:42:26;100978.06;;;9.40;86.30
70009;BME280;59542;37.950;-122.338;2022-12-29T13:45:00;100980.28;;;9.08;87.94
70009;BME280;59542;37.950;-122.338;2022-12-29T13:47:30;100977.34;;;9.03;87.82
70009;BME280;59542;37.950;-122.338;2022-12-29T13:50:00;100988.16;;;9.16;87.55
70009;BME280;59542;37.950;-122.338;2022-12-29T13:52:36;101000.50;;;9.17;87.43
70009;BME280;59542;37.950;-122.338;2022-12-29T13:55:20;101011.28;;;9.31;87.45
70009;BME280;59542;37.950;-122.338;2022-12-29T14:03:41;101015.06;;;9.71;85.23
70009;BME280;59542;37.950;-122.338;2022-12-29T14:06:38;101012.66;;;9.83;84.88
70009;BME280;59542;37.950;-122.338;2022-12-29T14:12:40;100989.47;;;9.90;84.69
70009;BME280;59542;37.950;-122.338;2022-12-29T14:17:37;101003.50;;;9.64;85.50
70009;BME280;59542;37.950;-122.338;2022-12-29T14:20:17;101016.81;;;9.92;83.82
70009;BME280;59542;37.950;-122.338;2022-12-29T14:28:38;101017.63;;;9.30;82.42
70009;BME280;59542;37.950;-122.338;2022-12-29T14:33:41;101019.53;;;9.36;83.71
70009;BME280;59542;37.950;-122.338;2022-12-29T14:39:38;101063.34;;;9.41;84.06
70009;BME280;59542;37.950;-122.338;2022-12-29T14:42:13;101079.44;;;9.26;84.90
70009;BME280;59542;37.950;-122.338;2022-12-29T14:44:56;101070.34;;;9.21;86.06
70009;BME280;59542;37.950;-122.338;2022-12-29T14:52:53;101039.72;;;8.74;89.46
70009;BME280;59542;37.950;-122.338;2022-12-29T14:55:44;101032.03;;;8.86;89.09
70009;BME280;59542;37.950;-122.338;2022-12-29T14:58:19;101048.31;;;9.34;87.03
70009;BME280;59542;37.950;-122.338;2022-12-29T15:00:47;101061.13;;;9.45;86.70
70009;BME280;59542;37.950;-122.338;2022-12-29T15:05:54;101069.81;;;9.53;86.42
70009;BME280;59542;37.950;-122.338;2022-12-29T15:08:28;101070.31;;;9.64;85.85